Overview Statistics Trail Chart Weather Telemetry Raw packets
 

This is the latest recevied weather packets stored in our database for station/object OM8AGG-15. If no packets are shown the sender has not sent any weather packets the latest 10 day(s).

<< 29 30 31 32 33 34 35 >>
Time Temp. Humidity Pressure Rain* Wind** Luminosity Snow
1787931249 27.22° C 80% 1018 hPa - - - -
1787930349 27.78° C 80% 1018.2 hPa - - - -
1787929449 26.67° C 80% 1018.3 hPa - - - -
1787928548 27.22° C 80% 1018.3 hPa - - - -
1787927648 26.67° C 80% 1018.3 hPa - - - -
1787926748 26.11° C 80% 1018.5 hPa - - - -
1787925848 26.67° C 80% 1018.4 hPa - - - -
1787924948 27.22° C 80% 1018.8 hPa - - - -
1787924048 27.22° C 80% 1019.1 hPa - - - -
1787923148 27.78° C 80% 1019.3 hPa - - - -
1787922248 26.11° C 80% 1019.3 hPa - - - -
1787921348 25° C 80% 1019.3 hPa - - - -
1787920447 26.67° C 80% 1019.6 hPa - - - -
1787919547 26.11° C 80% 1019.6 hPa - - - -
1787918647 25.56° C 80% 1019.9 hPa - - - -
1787917747 25.56° C 80% 1019.9 hPa - - - -
1787916847 25.56° C 80% 1020.1 hPa - - - -
1787915947 25° C 80% 1020.2 hPa - - - -
1787915047 23.89° C 80% 1020.2 hPa - - - -
1787914146 26.67° C 80% 1020.7 hPa - - - -
1787913246 25° C 80% 1020.8 hPa - - - -
1787912346 25° C 80% 1020.9 hPa - - - -
1787911446 23.89° C 80% 1021.1 hPa - - - -
1787910546 25.56° C 80% 1021.5 hPa - - - -
1787909646 24.44° C 80% 1021.4 hPa - - - -

* Rain since midnight (hover to see other rain measurements)
** Current wind speed in m/s (hover to see current wind gust speed)